sensor_id;sensor_type;location;lat;lon;timestamp;P1;durP1;ratioP1;P2;durP2;ratioP2
74204;SDS011;62564;52.678;4.900;2023-03-14T00:02:07;4.95;;;0.80;;
74204;SDS011;62564;52.678;4.900;2023-03-14T00:04:32;4.47;;;0.93;;
74204;SDS011;62564;52.678;4.900;2023-03-14T00:06:57;4.87;;;0.73;;
74204;SDS011;62564;52.678;4.900;2023-03-14T00:09:23;5.07;;;1.17;;
74204;SDS011;62564;52.678;4.900;2023-03-14T00:11:48;5.05;;;0.70;;
74204;SDS011;62564;52.678;4.900;2023-03-14T00:14:13;5.40;;;1.17;;
74204;SDS011;62564;52.678;4.900;2023-03-14T00:16:40;6.38;;;0.85;;
74204;SDS011;62564;52.678;4.900;2023-03-14T00:19:05;4.45;;;1.30;;
74204;SDS011;62564;52.678;4.900;2023-03-14T00:21:31;5.23;;;0.97;;
74204;SDS011;62564;52.678;4.900;2023-03-14T00:23:56;5.07;;;1.00;;
74204;SDS011;62564;52.678;4.900;2023-03-14T00:26:21;3.83;;;0.83;;
74204;SDS011;62564;52.678;4.900;2023-03-14T00:28:47;4.63;;;0.88;;
74204;SDS011;62564;52.678;4.900;2023-03-14T00:31:16;6.00;;;1.20;;
74204;SDS011;62564;52.678;4.900;2023-03-14T00:33:42;4.20;;;1.13;;
74204;SDS011;62564;52.678;4.900;2023-03-14T00:36:09;3.55;;;1.10;;
74204;SDS011;62564;52.678;4.900;2023-03-14T00:38:36;4.80;;;0.82;;
74204;SDS011;62564;52.678;4.900;2023-03-14T00:41:03;3.85;;;0.70;;
74204;SDS011;62564;52.678;4.900;2023-03-14T00:43:32;5.28;;;1.60;;
74204;SDS011;62564;52.678;4.900;2023-03-14T00:45:58;5.13;;;1.10;;
74204;SDS011;62564;52.678;4.900;2023-03-14T00:48:23;6.27;;;2.43;;
74204;SDS011;62564;52.678;4.900;2023-03-14T00:50:48;4.37;;;0.93;;
74204;SDS011;62564;52.678;4.900;2023-03-14T00:53:14;5.10;;;0.82;;
74204;SDS011;62564;52.678;4.900;2023-03-14T00:55:40;4.85;;;1.45;;
74204;SDS011;62564;52.678;4.900;2023-03-14T00:58:07;5.57;;;0.90;;
74204;SDS011;62564;52.678;4.900;2023-03-14T01:00:32;4.20;;;1.20;;
74204;SDS011;62564;52.678;4.900;2023-03-14T01:02:58;5.15;;;1.00;;
74204;SDS011;62564;52.678;4.900;2023-03-14T01:05:23;5.88;;;1.10;;
74204;SDS011;62564;52.678;4.900;2023-03-14T01:07:49;5.68;;;0.63;;
74204;SDS011;62564;52.678;4.900;2023-03-14T01:10:15;6.18;;;1.17;;
74204;SDS011;62564;52.678;4.900;2023-03-14T01:12:40;3.70;;;0.88;;
74204;SDS011;62564;52.678;4.900;2023-03-14T01:15:06;3.78;;;0.80;;
74204;SDS011;62564;52.678;4.900;2023-03-14T01:17:31;5.47;;;1.92;;
74204;SDS011;62564;52.678;4.900;2023-03-14T01:19:56;5.88;;;1.38;;
74204;SDS011;62564;52.678;4.900;2023-03-14T01:22:22;4.40;;;1.17;;
74204;SDS011;62564;52.678;4.900;2023-03-14T01:24:47;5.77;;;1.13;;
74204;SDS011;62564;52.678;4.900;2023-03-14T01:27:12;5.90;;;1.00;;
74204;SDS011;62564;52.678;4.900;2023-03-14T01:29:38;4.03;;;1.05;;
74204;SDS011;62564;52.678;4.900;2023-03-14T01:32:03;5.47;;;1.30;;
74204;SDS011;62564;52.678;4.900;2023-03-14T01:34:29;5.20;;;1.15;;
74204;SDS011;62564;52.678;4.900;2023-03-14T01:36:54;6.35;;;1.05;;
74204;SDS011;62564;52.678;4.900;2023-03-14T01:39:19;4.25;;;1.65;;
74204;SDS011;62564;52.678;4.900;2023-03-14T01:41:45;4.10;;;1.07;;
74204;SDS011;62564;52.678;4.900;2023-03-14T01:44:11;3.07;;;0.93;;
74204;SDS011;62564;52.678;4.900;2023-03-14T01:49:04;3.67;;;0.87;;
74204;SDS011;62564;52.678;4.900;2023-03-14T01:51:32;7.47;;;1.20;;
74204;SDS011;62564;52.678;4.900;2023-03-14T01:54:44;3.55;;;0.70;;
74204;SDS011;62564;52.678;4.900;2023-03-14T01:56:58;4.55;;;1.58;;
74204;SDS011;62564;52.678;4.900;2023-03-14T01:59:37;5.10;;;1.25;;
74204;SDS011;62564;52.678;4.900;2023-03-14T02:02:04;3.85;;;0.90;;
74204;SDS011;62564;52.678;4.900;2023-03-14T02:04:32;4.70;;;1.05;;
74204;SDS011;62564;52.678;4.900;2023-03-14T02:07:01;6.15;;;1.70;;
74204;SDS011;62564;52.678;4.900;2023-03-14T02:09:31;4.38;;;1.05;;
74204;SDS011;62564;52.678;4.900;2023-03-14T02:11:56;4.07;;;0.67;;
74204;SDS011;62564;52.678;4.900;2023-03-14T02:14:25;4.80;;;1.37;;
74204;SDS011;62564;52.678;4.900;2023-03-14T02:16:55;4.55;;;1.02;;
74204;SDS011;62564;52.678;4.900;2023-03-14T02:19:24;5.45;;;0.63;;
74204;SDS011;62564;52.678;4.900;2023-03-14T02:21:57;4.18;;;1.05;;
74204;SDS011;62564;52.678;4.900;2023-03-14T02:24:50;4.22;;;1.27;;
74204;SDS011;62564;52.678;4.900;2023-03-14T02:27:36;4.55;;;0.80;;
74204;SDS011;62564;52.678;4.900;2023-03-14T02:30:03;4.85;;;0.80;;
74204;SDS011;62564;52.678;4.900;2023-03-14T02:32:30;3.35;;;0.95;;
74204;SDS011;62564;52.678;4.900;2023-03-14T02:34:58;5.30;;;0.90;;
74204;SDS011;62564;52.678;4.900;2023-03-14T02:37:27;3.72;;;0.63;;
74204;SDS011;62564;52.678;4.900;2023-03-14T02:39:57;4.93;;;0.50;;
74204;SDS011;62564;52.678;4.900;2023-03-14T02:42:22;4.57;;;0.77;;
74204;SDS011;62564;52.678;4.900;2023-03-14T02:44:48;4.50;;;0.60;;
74204;SDS011;62564;52.678;4.900;2023-03-14T02:47:16;3.40;;;0.75;;
74204;SDS011;62564;52.678;4.900;2023-03-14T02:49:41;3.97;;;0.67;;
74204;SDS011;62564;52.678;4.900;2023-03-14T02:52:07;4.38;;;0.73;;
74204;SDS011;62564;52.678;4.900;2023-03-14T02:54:32;4.27;;;0.90;;
74204;SDS011;62564;52.678;4.900;2023-03-14T02:56:57;4.57;;;0.90;;
74204;SDS011;62564;52.678;4.900;2023-03-14T02:59:23;4.80;;;1.60;;
74204;SDS011;62564;52.678;4.900;2023-03-14T03:01:48;3.53;;;0.80;;
74204;SDS011;62564;52.678;4.900;2023-03-14T03:04:13;4.93;;;0.70;;
74204;SDS011;62564;52.678;4.900;2023-03-14T03:06:39;3.97;;;1.03;;
74204;SDS011;62564;52.678;4.900;2023-03-14T03:09:04;3.90;;;0.97;;
74204;SDS011;62564;52.678;4.900;2023-03-14T03:11:29;4.43;;;1.20;;
74204;SDS011;62564;52.678;4.900;2023-03-14T03:13:56;3.33;;;0.75;;
74204;SDS011;62564;52.678;4.900;2023-03-14T03:16:21;3.43;;;0.50;;
74204;SDS011;62564;52.678;4.900;2023-03-14T03:18:47;3.90;;;0.40;;
74204;SDS011;62564;52.678;4.900;2023-03-14T03:21:12;2.30;;;0.27;;
74204;SDS011;62564;52.678;4.900;2023-03-14T03:23:37;3.28;;;0.73;;
74204;SDS011;62564;52.678;4.900;2023-03-14T03:26:03;4.97;;;0.57;;
74204;SDS011;62564;52.678;4.900;2023-03-14T03:28:28;2.67;;;0.68;;
74204;SDS011;62564;52.678;4.900;2023-03-14T03:30:53;3.17;;;1.43;;
74204;SDS011;62564;52.678;4.900;2023-03-14T03:33:19;3.73;;;0.87;;
74204;SDS011;62564;52.678;4.900;2023-03-14T03:38:10;4.15;;;0.70;;
74204;SDS011;62564;52.678;4.900;2023-03-14T03:40:36;4.47;;;1.13;;
74204;SDS011;62564;52.678;4.900;2023-03-14T03:43:02;3.30;;;0.60;;
74204;SDS011;62564;52.678;4.900;2023-03-14T03:45:28;3.90;;;1.13;;
74204;SDS011;62564;52.678;4.900;2023-03-14T03:47:54;3.65;;;0.30;;
74204;SDS011;62564;52.678;4.900;2023-03-14T03:50:19;3.70;;;0.63;;
74204;SDS011;62564;52.678;4.900;2023-03-14T03:52:44;4.77;;;1.10;;
74204;SDS011;62564;52.678;4.900;2023-03-14T03:55:10;4.23;;;0.83;;
74204;SDS011;62564;52.678;4.900;2023-03-14T03:57:35;4.33;;;0.70;;
74204;SDS011;62564;52.678;4.900;2023-03-14T04:00:00;3.77;;;1.43;;
74204;SDS011;62564;52.678;4.900;2023-03-14T04:02:26;3.00;;;0.70;;
74204;SDS011;62564;52.678;4.900;2023-03-14T04:04:51;3.03;;;0.75;;
74204;SDS011;62564;52.678;4.900;2023-03-14T04:07:16;3.27;;;0.57;;
74204;SDS011;62564;52.678;4.900;2023-03-14T04:09:42;3.40;;;0.90;;
74204;SDS011;62564;52.678;4.900;2023-03-14T04:12:07;3.70;;;0.65;;
74204;SDS011;62564;52.678;4.900;2023-03-14T04:14:32;3.03;;;0.63;;
74204;SDS011;62564;52.678;4.900;2023-03-14T04:16:58;2.87;;;0.83;;
74204;SDS011;62564;52.678;4.900;2023-03-14T04:19:23;4.50;;;0.60;;
74204;SDS011;62564;52.678;4.900;2023-03-14T04:21:48;4.33;;;0.80;;
74204;SDS011;62564;52.678;4.900;2023-03-14T04:24:14;3.73;;;0.60;;
74204;SDS011;62564;52.678;4.900;2023-03-14T04:26:39;3.53;;;0.68;;
74204;SDS011;62564;52.678;4.900;2023-03-14T04:29:04;3.33;;;0.60;;
74204;SDS011;62564;52.678;4.900;2023-03-14T04:31:30;3.28;;;0.63;;
74204;SDS011;62564;52.678;4.900;2023-03-14T04:33:55;2.47;;;0.30;;
74204;SDS011;62564;52.678;4.900;2023-03-14T04:36:20;2.97;;;0.47;;
74204;SDS011;62564;52.678;4.900;2023-03-14T04:38:46;4.03;;;1.70;;
74204;SDS011;62564;52.678;4.900;2023-03-14T04:41:11;3.93;;;0.60;;
74204;SDS011;62564;52.678;4.900;2023-03-14T04:43:36;4.87;;;0.77;;
74204;SDS011;62564;52.678;4.900;2023-03-14T04:46:02;3.43;;;0.67;;
74204;SDS011;62564;52.678;4.900;2023-03-14T04:48:27;3.58;;;0.65;;
74204;SDS011;62564;52.678;4.900;2023-03-14T04:50:53;3.72;;;0.60;;
74204;SDS011;62564;52.678;4.900;2023-03-14T04:53:19;3.58;;;0.40;;
74204;SDS011;62564;52.678;4.900;2023-03-14T04:55:48;4.18;;;0.57;;
74204;SDS011;62564;52.678;4.900;2023-03-14T04:58:14;3.67;;;0.63;;
74204;SDS011;62564;52.678;4.900;2023-03-14T05:00:39;4.43;;;1.08;;
74204;SDS011;62564;52.678;4.900;2023-03-14T05:03:05;2.63;;;0.77;;
74204;SDS011;62564;52.678;4.900;2023-03-14T05:05:30;2.28;;;0.50;;
74204;SDS011;62564;52.678;4.900;2023-03-14T05:07:56;2.60;;;0.77;;
74204;SDS011;62564;52.678;4.900;2023-03-14T05:10:21;3.00;;;0.60;;
74204;SDS011;62564;52.678;4.900;2023-03-14T05:12:46;3.15;;;0.38;;
74204;SDS011;62564;52.678;4.900;2023-03-14T05:15:11;3.17;;;0.30;;
74204;SDS011;62564;52.678;4.900;2023-03-14T05:17:37;2.40;;;0.20;;
74204;SDS011;62564;52.678;4.900;2023-03-14T05:20:02;3.07;;;0.63;;
74204;SDS011;62564;52.678;4.900;2023-03-14T05:22:33;2.72;;;0.57;;
74204;SDS011;62564;52.678;4.900;2023-03-14T05:24:59;3.43;;;0.70;;
74204;SDS011;62564;52.678;4.900;2023-03-14T05:27:24;3.27;;;0.47;;
74204;SDS011;62564;52.678;4.900;2023-03-14T05:29:49;2.70;;;0.60;;
74204;SDS011;62564;52.678;4.900;2023-03-14T05:32:14;2.93;;;0.60;;
74204;SDS011;62564;52.678;4.900;2023-03-14T05:34:40;1.97;;;0.33;;
74204;SDS011;62564;52.678;4.900;2023-03-14T05:37:05;3.07;;;0.40;;
74204;SDS011;62564;52.678;4.900;2023-03-14T05:39:30;3.37;;;1.83;;
74204;SDS011;62564;52.678;4.900;2023-03-14T05:41:56;2.70;;;0.40;;
74204;SDS011;62564;52.678;4.900;2023-03-14T05:44:21;3.57;;;0.63;;
74204;SDS011;62564;52.678;4.900;2023-03-14T05:46:46;2.25;;;0.32;;
74204;SDS011;62564;52.678;4.900;2023-03-14T05:49:12;2.87;;;0.60;;
74204;SDS011;62564;52.678;4.900;2023-03-14T05:51:37;2.50;;;0.10;;
74204;SDS011;62564;52.678;4.900;2023-03-14T05:54:02;3.20;;;0.40;;
74204;SDS011;62564;52.678;4.900;2023-03-14T05:56:28;2.67;;;0.33;;
74204;SDS011;62564;52.678;4.900;2023-03-14T05:58:53;2.53;;;0.60;;
74204;SDS011;62564;52.678;4.900;2023-03-14T06:01:18;2.45;;;0.35;;
74204;SDS011;62564;52.678;4.900;2023-03-14T06:03:44;3.30;;;0.60;;
74204;SDS011;62564;52.678;4.900;2023-03-14T06:06:09;3.53;;;0.43;;
74204;SDS011;62564;52.678;4.900;2023-03-14T06:08:34;2.67;;;0.40;;
74204;SDS011;62564;52.678;4.900;2023-03-14T06:10:59;3.17;;;0.40;;
74204;SDS011;62564;52.678;4.900;2023-03-14T06:13:27;3.28;;;0.52;;
74204;SDS011;62564;52.678;4.900;2023-03-14T06:15:53;3.22;;;0.50;;
74204;SDS011;62564;52.678;4.900;2023-03-14T06:18:18;3.03;;;0.50;;
74204;SDS011;62564;52.678;4.900;2023-03-14T06:20:43;2.13;;;0.30;;
74204;SDS011;62564;52.678;4.900;2023-03-14T06:23:09;3.10;;;0.87;;
74204;SDS011;62564;52.678;4.900;2023-03-14T06:25:34;2.65;;;0.22;;
74204;SDS011;62564;52.678;4.900;2023-03-14T06:28:00;4.38;;;0.52;;
74204;SDS011;62564;52.678;4.900;2023-03-14T06:30:26;2.50;;;0.40;;
74204;SDS011;62564;52.678;4.900;2023-03-14T06:32:52;2.30;;;0.60;;
74204;SDS011;62564;52.678;4.900;2023-03-14T06:35:17;2.23;;;0.30;;
74204;SDS011;62564;52.678;4.900;2023-03-14T06:37:42;3.72;;;0.50;;
74204;SDS011;62564;52.678;4.900;2023-03-14T06:40:11;2.85;;;0.13;;
74204;SDS011;62564;52.678;4.900;2023-03-14T06:42:38;3.95;;;0.50;;
74204;SDS011;62564;52.678;4.900;2023-03-14T06:45:04;2.30;;;0.13;;
74204;SDS011;62564;52.678;4.900;2023-03-14T06:47:30;3.10;;;0.10;;
74204;SDS011;62564;52.678;4.900;2023-03-14T06:49:55;2.13;;;0.43;;
74204;SDS011;62564;52.678;4.900;2023-03-14T06:52:20;2.97;;;1.50;;
74204;SDS011;62564;52.678;4.900;2023-03-14T06:54:46;3.45;;;1.10;;
74204;SDS011;62564;52.678;4.900;2023-03-14T06:57:11;1.90;;;0.10;;
74204;SDS011;62564;52.678;4.900;2023-03-14T06:59:36;2.43;;;0.50;;
74204;SDS011;62564;52.678;4.900;2023-03-14T07:02:02;2.30;;;0.43;;
74204;SDS011;62564;52.678;4.900;2023-03-14T07:04:27;2.17;;;0.40;;
74204;SDS011;62564;52.678;4.900;2023-03-14T07:06:52;2.63;;;0.30;;
74204;SDS011;62564;52.678;4.900;2023-03-14T07:09:18;2.20;;;0.30;;
74204;SDS011;62564;52.678;4.900;2023-03-14T07:11:43;2.75;;;0.20;;
74204;SDS011;62564;52.678;4.900;2023-03-14T07:14:08;3.15;;;0.30;;
74204;SDS011;62564;52.678;4.900;2023-03-14T07:16:34;1.30;;;0.30;;
74204;SDS011;62564;52.678;4.900;2023-03-14T07:19:00;3.15;;;0.32;;
74204;SDS011;62564;52.678;4.900;2023-03-14T07:21:25;2.65;;;0.40;;
74204;SDS011;62564;52.678;4.900;2023-03-14T07:23:51;3.55;;;0.10;;
74204;SDS011;62564;52.678;4.900;2023-03-14T07:26:16;6.93;;;0.90;;
74204;SDS011;62564;52.678;4.900;2023-03-14T07:28:41;3.65;;;0.40;;
74204;SDS011;62564;52.678;4.900;2023-03-14T07:31:07;5.07;;;0.30;;
74204;SDS011;62564;52.678;4.900;2023-03-14T07:33:32;6.20;;;0.70;;
74204;SDS011;62564;52.678;4.900;2023-03-14T07:35:58;3.93;;;0.30;;
74204;SDS011;62564;52.678;4.900;2023-03-14T07:38:23;4.18;;;0.68;;
74204;SDS011;62564;52.678;4.900;2023-03-14T07:40:48;7.60;;;0.43;;
74204;SDS011;62564;52.678;4.900;2023-03-14T07:43:14;6.00;;;0.52;;
74204;SDS011;62564;52.678;4.900;2023-03-14T07:45:39;8.33;;;0.50;;
74204;SDS011;62564;52.678;4.900;2023-03-14T07:48:04;7.00;;;0.60;;
74204;SDS011;62564;52.678;4.900;2023-03-14T07:50:30;8.80;;;0.87;;
74204;SDS011;62564;52.678;4.900;2023-03-14T07:52:55;4.80;;;0.50;;
74204;SDS011;62564;52.678;4.900;2023-03-14T07:55:20;7.22;;;0.40;;
74204;SDS011;62564;52.678;4.900;2023-03-14T07:57:46;6.45;;;0.50;;
74204;SDS011;62564;52.678;4.900;2023-03-14T08:00:11;6.45;;;0.57;;
74204;SDS011;62564;52.678;4.900;2023-03-14T08:02:38;7.57;;;0.60;;
74204;SDS011;62564;52.678;4.900;2023-03-14T08:05:04;4.88;;;0.60;;
74204;SDS011;62564;52.678;4.900;2023-03-14T08:07:30;5.38;;;0.80;;
74204;SDS011;62564;52.678;4.900;2023-03-14T08:09:55;8.67;;;2.13;;
74204;SDS011;62564;52.678;4.900;2023-03-14T08:12:20;5.40;;;1.20;;
74204;SDS011;62564;52.678;4.900;2023-03-14T08:14:46;5.30;;;1.85;;
74204;SDS011;62564;52.678;4.900;2023-03-14T08:17:11;4.83;;;1.70;;
74204;SDS011;62564;52.678;4.900;2023-03-14T08:19:37;5.53;;;2.55;;
74204;SDS011;62564;52.678;4.900;2023-03-14T08:22:02;6.10;;;1.40;;
74204;SDS011;62564;52.678;4.900;2023-03-14T08:24:28;6.38;;;1.10;;
74204;SDS011;62564;52.678;4.900;2023-03-14T08:26:53;4.72;;;1.40;;
74204;SDS011;62564;52.678;4.900;2023-03-14T08:29:18;6.63;;;1.60;;
74204;SDS011;62564;52.678;4.900;2023-03-14T08:31:43;5.68;;;1.40;;
74204;SDS011;62564;52.678;4.900;2023-03-14T08:34:09;4.75;;;1.30;;
74204;SDS011;62564;52.678;4.900;2023-03-14T08:36:34;6.00;;;1.30;;
74204;SDS011;62564;52.678;4.900;2023-03-14T08:39:00;4.77;;;0.93;;
74204;SDS011;62564;52.678;4.900;2023-03-14T08:41:25;5.23;;;1.40;;
74204;SDS011;62564;52.678;4.900;2023-03-14T08:43:50;5.47;;;1.37;;
74204;SDS011;62564;52.678;4.900;2023-03-14T08:46:16;4.53;;;1.30;;
74204;SDS011;62564;52.678;4.900;2023-03-14T08:48:41;8.73;;;1.37;;
74204;SDS011;62564;52.678;4.900;2023-03-14T08:51:10;4.97;;;0.90;;
74204;SDS011;62564;52.678;4.900;2023-03-14T08:53:37;5.68;;;0.93;;
74204;SDS011;62564;52.678;4.900;2023-03-14T08:56:03;4.70;;;1.27;;
74204;SDS011;62564;52.678;4.900;2023-03-14T08:58:30;6.30;;;1.35;;
74204;SDS011;62564;52.678;4.900;2023-03-14T09:00:55;5.57;;;2.73;;
74204;SDS011;62564;52.678;4.900;2023-03-14T09:03:21;5.55;;;1.88;;
74204;SDS011;62564;52.678;4.900;2023-03-14T09:05:48;5.10;;;1.20;;
74204;SDS011;62564;52.678;4.900;2023-03-14T09:08:13;7.72;;;1.45;;
74204;SDS011;62564;52.678;4.900;2023-03-14T09:10:39;5.85;;;1.83;;
74204;SDS011;62564;52.678;4.900;2023-03-14T09:13:04;3.37;;;0.80;;
74204;SDS011;62564;52.678;4.900;2023-03-14T09:15:29;4.93;;;1.13;;
74204;SDS011;62564;52.678;4.900;2023-03-14T09:17:55;5.90;;;1.40;;
74204;SDS011;62564;52.678;4.900;2023-03-14T09:20:20;4.95;;;1.88;;
74204;SDS011;62564;52.678;4.900;2023-03-14T09:22:45;4.87;;;1.20;;
74204;SDS011;62564;52.678;4.900;2023-03-14T09:25:11;4.60;;;0.68;;
74204;SDS011;62564;52.678;4.900;2023-03-14T09:27:36;4.63;;;0.87;;
74204;SDS011;62564;52.678;4.900;2023-03-14T09:30:02;4.83;;;0.90;;
74204;SDS011;62564;52.678;4.900;2023-03-14T09:32:29;4.80;;;1.35;;
74204;SDS011;62564;52.678;4.900;2023-03-14T09:34:56;5.82;;;1.95;;
74204;SDS011;62564;52.678;4.900;2023-03-14T09:37:21;8.30;;;2.25;;
74204;SDS011;62564;52.678;4.900;2023-03-14T09:39:47;8.73;;;2.50;;
74204;SDS011;62564;52.678;4.900;2023-03-14T09:42:13;5.32;;;1.50;;
74204;SDS011;62564;52.678;4.900;2023-03-14T09:44:52;5.85;;;2.00;;
74204;SDS011;62564;52.678;4.900;2023-03-14T09:47:22;6.28;;;2.15;;
74204;SDS011;62564;52.678;4.900;2023-03-14T09:49:48;5.22;;;1.63;;
74204;SDS011;62564;52.678;4.900;2023-03-14T09:54:52;7.70;;;2.10;;
74204;SDS011;62564;52.678;4.900;2023-03-14T09:57:20;6.78;;;2.20;;
74204;SDS011;62564;52.678;4.900;2023-03-14T09:59:50;6.32;;;1.42;;
74204;SDS011;62564;52.678;4.900;2023-03-14T10:04:47;5.72;;;1.45;;
74204;SDS011;62564;52.678;4.900;2023-03-14T10:07:18;7.30;;;1.98;;
74204;SDS011;62564;52.678;4.900;2023-03-14T10:09:47;7.40;;;2.17;;
74204;SDS011;62564;52.678;4.900;2023-03-14T10:12:15;5.05;;;1.23;;
74204;SDS011;62564;52.678;4.900;2023-03-14T10:14:48;6.88;;;1.55;;
74204;SDS011;62564;52.678;4.900;2023-03-14T10:17:19;7.57;;;1.70;;
74204;SDS011;62564;52.678;4.900;2023-03-14T10:19:51;5.22;;;1.30;;
74204;SDS011;62564;52.678;4.900;2023-03-14T10:22:19;5.97;;;1.13;;
74204;SDS011;62564;52.678;4.900;2023-03-14T10:24:46;8.00;;;1.58;;
74204;SDS011;62564;52.678;4.900;2023-03-14T10:27:22;7.45;;;1.35;;
74204;SDS011;62564;52.678;4.900;2023-03-14T10:29:55;7.15;;;1.70;;
74204;SDS011;62564;52.678;4.900;2023-03-14T10:32:42;6.22;;;1.30;;
74204;SDS011;62564;52.678;4.900;2023-03-14T10:40:28;6.13;;;1.40;;
74204;SDS011;62564;52.678;4.900;2023-03-14T10:42:55;6.15;;;1.02;;
74204;SDS011;62564;52.678;4.900;2023-03-14T10:45:39;4.60;;;1.10;;
74204;SDS011;62564;52.678;4.900;2023-03-14T10:48:06;7.75;;;1.27;;
74204;SDS011;62564;52.678;4.900;2023-03-14T10:50:54;7.40;;;0.95;;
74204;SDS011;62564;52.678;4.900;2023-03-14T10:53:21;7.72;;;1.23;;
74204;SDS011;62564;52.678;4.900;2023-03-14T10:55:47;7.07;;;1.25;;
74204;SDS011;62564;52.678;4.900;2023-03-14T10:58:20;8.82;;;1.42;;
74204;SDS011;62564;52.678;4.900;2023-03-14T11:00:51;5.68;;;1.55;;
74204;SDS011;62564;52.678;4.900;2023-03-14T11:03:22;5.45;;;0.82;;
74204;SDS011;62564;52.678;4.900;2023-03-14T11:05:53;5.03;;;1.02;;
74204;SDS011;62564;52.678;4.900;2023-03-14T11:08:42;4.65;;;0.82;;
74204;SDS011;62564;52.678;4.900;2023-03-14T11:11:18;5.95;;;1.33;;
74204;SDS011;62564;52.678;4.900;2023-03-14T11:16:49;5.63;;;1.08;;
74204;SDS011;62564;52.678;4.900;2023-03-14T11:27:44;5.43;;;0.88;;
74204;SDS011;62564;52.678;4.900;2023-03-14T11:32:59;5.80;;;0.95;;
74204;SDS011;62564;52.678;4.900;2023-03-14T11:40:46;4.80;;;0.90;;
74204;SDS011;62564;52.678;4.900;2023-03-14T11:43:15;6.15;;;0.88;;
74204;SDS011;62564;52.678;4.900;2023-03-14T11:45:45;5.35;;;1.13;;
74204;SDS011;62564;52.678;4.900;2023-03-14T11:48:27;5.32;;;0.80;;
74204;SDS011;62564;52.678;4.900;2023-03-14T11:50:59;4.43;;;1.30;;
74204;SDS011;62564;52.678;4.900;2023-03-14T11:56:27;6.00;;;1.25;;
74204;SDS011;62564;52.678;4.900;2023-03-14T11:58:58;5.80;;;1.08;;
74204;SDS011;62564;52.678;4.900;2023-03-14T12:01:50;4.28;;;0.65;;
74204;SDS011;62564;52.678;4.900;2023-03-14T12:04:29;4.40;;;1.23;;
74204;SDS011;62564;52.678;4.900;2023-03-14T12:07:02;4.15;;;0.75;;
74204;SDS011;62564;52.678;4.900;2023-03-14T12:09:28;4.82;;;1.15;;
74204;SDS011;62564;52.678;4.900;2023-03-14T12:11:58;4.75;;;0.60;;
74204;SDS011;62564;52.678;4.900;2023-03-14T12:19:38;4.57;;;0.80;;
74204;SDS011;62564;52.678;4.900;2023-03-14T12:22:18;3.75;;;1.20;;
74204;SDS011;62564;52.678;4.900;2023-03-14T12:24:53;5.13;;;0.80;;
74204;SDS011;62564;52.678;4.900;2023-03-14T12:30:13;3.50;;;0.40;;
74204;SDS011;62564;52.678;4.900;2023-03-14T12:33:10;3.80;;;0.50;;
74204;SDS011;62564;52.678;4.900;2023-03-14T12:35:38;4.20;;;0.88;;
74204;SDS011;62564;52.678;4.900;2023-03-14T12:38:08;5.63;;;1.33;;
74204;SDS011;62564;52.678;4.900;2023-03-14T12:40:41;3.22;;;0.50;;
74204;SDS011;62564;52.678;4.900;2023-03-14T12:43:24;3.45;;;0.65;;
74204;SDS011;62564;52.678;4.900;2023-03-14T12:46:06;3.53;;;0.50;;
74204;SDS011;62564;52.678;4.900;2023-03-14T12:48:33;4.15;;;0.60;;
74204;SDS011;62564;52.678;4.900;2023-03-14T12:51:02;5.57;;;0.70;;
74204;SDS011;62564;52.678;4.900;2023-03-14T12:56:09;3.67;;;0.40;;
74204;SDS011;62564;52.678;4.900;2023-03-14T12:58:44;3.22;;;0.70;;
74204;SDS011;62564;52.678;4.900;2023-03-14T13:01:19;4.18;;;0.60;;
74204;SDS011;62564;52.678;4.900;2023-03-14T13:03:46;3.30;;;0.50;;
74204;SDS011;62564;52.678;4.900;2023-03-14T13:06:44;4.13;;;0.47;;
74204;SDS011;62564;52.678;4.900;2023-03-14T13:12:03;4.13;;;0.55;;
74204;SDS011;62564;52.678;4.900;2023-03-14T13:14:34;5.47;;;0.73;;
74204;SDS011;62564;52.678;4.900;2023-03-14T13:17:00;2.92;;;0.50;;
74204;SDS011;62564;52.678;4.900;2023-03-14T13:19:26;3.97;;;1.67;;
74204;SDS011;62564;52.678;4.900;2023-03-14T13:21:56;2.85;;;0.50;;
74204;SDS011;62564;52.678;4.900;2023-03-14T13:24:25;2.33;;;0.40;;
74204;SDS011;62564;52.678;4.900;2023-03-14T13:26:55;5.15;;;0.40;;
74204;SDS011;62564;52.678;4.900;2023-03-14T13:29:27;2.88;;;0.47;;
74204;SDS011;62564;52.678;4.900;2023-03-14T13:34:21;3.63;;;0.63;;
74204;SDS011;62564;52.678;4.900;2023-03-14T13:36:46;3.67;;;0.27;;
74204;SDS011;62564;52.678;4.900;2023-03-14T13:39:18;4.10;;;0.40;;
74204;SDS011;62564;52.678;4.900;2023-03-14T13:41:47;4.68;;;0.45;;
74204;SDS011;62564;52.678;4.900;2023-03-14T13:44:14;3.28;;;0.32;;
74204;SDS011;62564;52.678;4.900;2023-03-14T13:46:42;3.28;;;0.17;;
74204;SDS011;62564;52.678;4.900;2023-03-14T13:49:11;4.28;;;0.57;;
74204;SDS011;62564;52.678;4.900;2023-03-14T13:51:41;4.22;;;0.70;;
74204;SDS011;62564;52.678;4.900;2023-03-14T13:54:13;2.83;;;0.30;;
74204;SDS011;62564;52.678;4.900;2023-03-14T13:59:20;1.75;;;0.28;;
74204;SDS011;62564;52.678;4.900;2023-03-14T14:01:46;2.15;;;0.30;;
74204;SDS011;62564;52.678;4.900;2023-03-14T14:04:16;4.28;;;0.38;;
74204;SDS011;62564;52.678;4.900;2023-03-14T14:06:47;2.55;;;0.30;;
74204;SDS011;62564;52.678;4.900;2023-03-14T14:09:25;4.40;;;0.45;;
74204;SDS011;62564;52.678;4.900;2023-03-14T14:12:02;4.65;;;0.63;;
74204;SDS011;62564;52.678;4.900;2023-03-14T14:14:32;3.45;;;0.40;;
74204;SDS011;62564;52.678;4.900;2023-03-14T14:16:59;3.95;;;0.80;;
74204;SDS011;62564;52.678;4.900;2023-03-14T14:21:52;4.50;;;0.43;;
74204;SDS011;62564;52.678;4.900;2023-03-14T14:24:18;3.55;;;0.73;;
74204;SDS011;62564;52.678;4.900;2023-03-14T14:26:52;3.10;;;0.40;;
74204;SDS011;62564;52.678;4.900;2023-03-14T14:34:39;2.70;;;0.30;;
74204;SDS011;62564;52.678;4.900;2023-03-14T14:37:15;3.85;;;0.30;;
74204;SDS011;62564;52.678;4.900;2023-03-14T14:39:42;3.97;;;0.55;;
74204;SDS011;62564;52.678;4.900;2023-03-14T14:42:12;3.83;;;0.43;;
74204;SDS011;62564;52.678;4.900;2023-03-14T14:44:39;3.33;;;1.00;;
74204;SDS011;62564;52.678;4.900;2023-03-14T14:47:04;3.55;;;0.50;;
74204;SDS011;62564;52.678;4.900;2023-03-14T14:49:31;3.42;;;0.63;;
74204;SDS011;62564;52.678;4.900;2023-03-14T14:52:04;3.65;;;0.35;;
74204;SDS011;62564;52.678;4.900;2023-03-14T14:54:39;4.60;;;0.30;;
74204;SDS011;62564;52.678;4.900;2023-03-14T14:57:28;2.83;;;0.52;;
74204;SDS011;62564;52.678;4.900;2023-03-14T15:00:06;2.58;;;0.47;;
74204;SDS011;62564;52.678;4.900;2023-03-14T15:02:44;2.55;;;0.47;;
74204;SDS011;62564;52.678;4.900;2023-03-14T15:05:24;2.63;;;0.73;;
74204;SDS011;62564;52.678;4.900;2023-03-14T15:07:52;2.20;;;0.32;;
74204;SDS011;62564;52.678;4.900;2023-03-14T15:10:18;3.05;;;0.50;;
74204;SDS011;62564;52.678;4.900;2023-03-14T15:12:45;3.53;;;0.63;;
74204;SDS011;62564;52.678;4.900;2023-03-14T15:15:12;2.65;;;0.47;;
74204;SDS011;62564;52.678;4.900;2023-03-14T15:17:38;3.00;;;0.35;;
74204;SDS011;62564;52.678;4.900;2023-03-14T15:20:04;3.78;;;0.20;;
74204;SDS011;62564;52.678;4.900;2023-03-14T15:22:31;3.53;;;0.40;;
74204;SDS011;62564;52.678;4.900;2023-03-14T15:24:57;2.90;;;0.43;;
74204;SDS011;62564;52.678;4.900;2023-03-14T15:27:22;2.50;;;0.60;;
74204;SDS011;62564;52.678;4.900;2023-03-14T15:29:47;2.15;;;0.22;;
74204;SDS011;62564;52.678;4.900;2023-03-14T15:32:14;2.43;;;0.20;;
74204;SDS011;62564;52.678;4.900;2023-03-14T15:34:40;2.90;;;0.35;;
74204;SDS011;62564;52.678;4.900;2023-03-14T15:37:13;2.05;;;0.20;;
74204;SDS011;62564;52.678;4.900;2023-03-14T15:39:44;2.63;;;0.43;;
74204;SDS011;62564;52.678;4.900;2023-03-14T15:42:09;2.05;;;0.32;;
74204;SDS011;62564;52.678;4.900;2023-03-14T15:44:35;3.58;;;0.50;;
74204;SDS011;62564;52.678;4.900;2023-03-14T15:47:00;2.42;;;0.60;;
74204;SDS011;62564;52.678;4.900;2023-03-14T15:49:26;2.80;;;0.25;;
74204;SDS011;62564;52.678;4.900;2023-03-14T15:51:51;3.28;;;0.73;;
74204;SDS011;62564;52.678;4.900;2023-03-14T15:54:17;3.03;;;0.30;;
74204;SDS011;62564;52.678;4.900;2023-03-14T15:56:42;2.33;;;0.30;;